createdAt,value
2023-03-31T00:01:11.252Z,78.41
2023-03-31T00:03:44.587Z,78.42
2023-03-31T00:06:18.837Z,78.44
2023-03-31T00:08:52.308Z,78.95
2023-03-31T00:11:21.912Z,78.60
2023-03-31T00:13:50.446Z,79.04
2023-03-31T00:16:18.972Z,79.00
2023-03-31T00:18:51.241Z,79.07
2023-03-31T00:21:29.838Z,79.28
2023-03-31T00:24:01.064Z,79.51
2023-03-31T00:26:30.175Z,79.57
2023-03-31T00:28:59.745Z,79.49
2023-03-31T00:31:28.862Z,79.42
2023-03-31T00:33:57.496Z,79.54
2023-03-31T00:36:28.664Z,79.18
2023-03-31T00:39:00.515Z,79.68
2023-03-31T00:41:30.398Z,79.71
2023-03-31T00:44:09.571Z,79.22
2023-03-31T00:46:47.275Z,79.88
2023-03-31T00:49:22.148Z,79.98
2023-03-31T00:51:54.082Z,79.46
2023-03-31T00:54:26.144Z,79.61
2023-03-31T00:56:58.784Z,80.29
2023-03-31T00:59:31.660Z,80.13
2023-03-31T01:02:03.101Z,79.74
2023-03-31T01:04:34.961Z,79.50
2023-03-31T01:07:12.621Z,79.62
2023-03-31T01:09:42.256Z,79.52
2023-03-31T01:12:12.379Z,79.86
2023-03-31T01:14:40.904Z,79.77
2023-03-31T01:17:10.722Z,79.43
2023-03-31T01:19:59.932Z,79.52
2023-03-31T01:23:08.016Z,79.05
2023-03-31T01:26:05.889Z,79.11
2023-03-31T01:28:42.474Z,79.31
2023-03-31T01:31:43.420Z,78.80
2023-03-31T01:34:47.160Z,79.26
2023-03-31T01:37:57.603Z,79.30
2023-03-31T01:41:02.473Z,79.31
2023-03-31T01:43:39.035Z,79.13
2023-03-31T01:46:18.543Z,79.23
2023-03-31T01:48:57.122Z,79.24
2023-03-31T01:51:34.101Z,79.09
2023-03-31T01:54:12.671Z,79.08
2023-03-31T01:56:45.205Z,79.75
2023-03-31T01:59:18.469Z,79.78
2023-03-31T02:01:52.658Z,79.64
2023-03-31T02:04:24.761Z,79.59
2023-03-31T02:06:57.494Z,79.63
2023-03-31T02:09:30.568Z,79.83
2023-03-31T02:12:00.734Z,79.88
2023-03-31T02:14:33.261Z,79.81
2023-03-31T02:17:04.061Z,79.84
2023-03-31T02:19:36.483Z,79.48
2023-03-31T02:22:08.697Z,79.71
2023-03-31T02:24:40.345Z,79.76
2023-03-31T02:27:13.943Z,79.57
2023-03-31T02:29:44.240Z,79.50
2023-03-31T02:32:17.386Z,79.48
2023-03-31T02:34:45.819Z,79.71
2023-03-31T02:37:14.621Z,79.68
2023-03-31T02:39:49.609Z,79.67
2023-03-31T02:42:18.528Z,79.41
2023-03-31T02:44:48.327Z,79.58
2023-03-31T02:47:20.272Z,79.40
2023-03-31T02:49:51.944Z,79.46
2023-03-31T02:52:46.715Z,79.36
2023-03-31T02:55:44.068Z,78.68
2023-03-31T02:58:40.110Z,78.77
2023-03-31T03:01:17.474Z,78.99
2023-03-31T03:03:59.168Z,78.91
2023-03-31T03:06:40.646Z,78.71
2023-03-31T03:09:30.078Z,79.49
2023-03-31T03:12:09.915Z,79.16
2023-03-31T03:14:47.472Z,79.57
2023-03-31T03:17:23.874Z,79.15
2023-03-31T03:19:54.960Z,78.79
2023-03-31T03:22:23.499Z,79.08
2023-03-31T03:24:52.591Z,79.27
2023-03-31T03:27:22.527Z,78.82
2023-03-31T03:29:51.184Z,79.44
2023-03-31T03:32:21.060Z,79.05
2023-03-31T03:34:49.417Z,79.34
2023-03-31T03:37:17.887Z,79.69
2023-03-31T03:39:47.324Z,79.41
2023-03-31T03:42:15.821Z,80.05
2023-03-31T03:44:44.278Z,79.92
2023-03-31T03:47:12.706Z,80.36
2023-03-31T03:49:42.629Z,79.99
2023-03-31T03:52:11.122Z,80.06
2023-03-31T03:54:39.494Z,80.00
2023-03-31T03:57:07.993Z,79.74
2023-03-31T03:59:36.322Z,79.86
2023-03-31T04:02:04.928Z,79.87
2023-03-31T04:04:33.479Z,79.99
2023-03-31T04:07:03.374Z,80.14
2023-03-31T04:09:31.908Z,79.90
2023-03-31T04:12:00.237Z,79.56
2023-03-31T04:14:28.624Z,79.81
2023-03-31T04:16:58.746Z,79.66
2023-03-31T04:19:27.694Z,79.37
2023-03-31T04:22:03.164Z,79.40
2023-03-31T04:24:33.830Z,79.68
2023-03-31T04:27:03.162Z,79.62
2023-03-31T04:29:33.954Z,79.29
2023-03-31T04:32:03.016Z,79.45
2023-03-31T04:34:36.066Z,79.53
2023-03-31T04:37:05.468Z,78.85
2023-03-31T04:39:35.229Z,78.97
2023-03-31T04:42:03.793Z,79.68
2023-03-31T04:44:32.168Z,79.07
2023-03-31T04:47:03.288Z,78.95
2023-03-31T04:49:33.766Z,78.89
2023-03-31T04:52:02.258Z,78.85
2023-03-31T04:54:30.774Z,78.16
2023-03-31T04:57:00.656Z,78.47
2023-03-31T04:59:29.073Z,78.30
2023-03-31T05:01:57.486Z,77.96
2023-03-31T05:04:26.647Z,78.03
2023-03-31T05:06:55.356Z,77.56
2023-03-31T05:09:23.991Z,77.89
2023-03-31T05:11:52.545Z,78.06
2023-03-31T05:14:22.544Z,77.84
2023-03-31T05:16:50.967Z,78.06
2023-03-31T05:19:19.552Z,77.81
2023-03-31T05:21:47.981Z,77.93
2023-03-31T05:24:16.533Z,77.58
2023-03-31T05:26:48.522Z,78.08
2023-03-31T05:29:17.891Z,77.90
2023-03-31T05:31:48.314Z,77.83
2023-03-31T05:34:16.933Z,77.55
2023-03-31T05:36:45.366Z,77.81
2023-03-31T05:39:13.731Z,77.54
2023-03-31T05:41:42.206Z,77.87
2023-03-31T05:44:10.783Z,77.83
2023-03-31T05:46:39.252Z,78.03
2023-03-31T05:49:09.046Z,78.27
2023-03-31T05:51:37.426Z,78.04
2023-03-31T05:54:06.435Z,77.97
2023-03-31T05:56:34.893Z,78.11
2023-03-31T05:59:05.236Z,78.27
2023-03-31T06:01:34.021Z,78.25
2023-03-31T06:04:02.396Z,78.24
2023-03-31T06:06:34.710Z,78.31
2023-03-31T06:09:04.968Z,78.38
2023-03-31T06:11:33.650Z,78.41
2023-03-31T06:14:02.039Z,78.16
2023-03-31T06:16:30.427Z,78.43
2023-03-31T06:18:59.130Z,78.20
2023-03-31T06:21:27.630Z,78.73
2023-03-31T06:23:58.466Z,78.36
2023-03-31T06:26:27.554Z,78.56
2023-03-31T06:28:56.058Z,78.55
2023-03-31T06:31:26.376Z,78.68
2023-03-31T06:33:54.931Z,78.48
2023-03-31T06:36:24.228Z,78.81
2023-03-31T06:38:52.830Z,78.55
2023-03-31T06:41:22.812Z,78.57
2023-03-31T06:43:51.375Z,78.93
2023-03-31T06:46:19.837Z,78.51
2023-03-31T06:48:48.336Z,78.56
2023-03-31T06:51:17.039Z,78.67
2023-03-31T06:53:46.419Z,78.68
2023-03-31T06:56:14.820Z,78.71
2023-03-31T06:58:44.615Z,78.79
2023-03-31T07:01:13.062Z,78.66
2023-03-31T07:03:41.470Z,78.81
2023-03-31T07:06:09.910Z,78.43
2023-03-31T07:08:38.201Z,78.61
2023-03-31T07:11:06.917Z,78.40
2023-03-31T07:13:35.564Z,78.19
2023-03-31T07:16:07.451Z,78.03
2023-03-31T07:18:36.784Z,77.80
2023-03-31T07:21:09.817Z,77.28
2023-03-31T07:23:38.888Z,76.93
2023-03-31T07:26:07.599Z,76.36
2023-03-31T07:28:36.670Z,76.34
2023-03-31T07:31:12.581Z,75.89
2023-03-31T07:33:41.204Z,75.40
2023-03-31T07:36:13.353Z,74.89
2023-03-31T07:38:43.780Z,74.17
2023-03-31T07:41:13.267Z,73.59
2023-03-31T07:43:41.973Z,72.99
2023-03-31T07:46:18.272Z,72.73
2023-03-31T07:48:47.872Z,71.79
2023-03-31T07:51:17.815Z,70.89
2023-03-31T07:53:47.718Z,70.29
2023-03-31T07:56:20.918Z,69.40
2023-03-31T07:58:51.666Z,68.75
2023-03-31T08:01:26.892Z,68.09
2023-03-31T08:03:56.064Z,67.32
2023-03-31T08:06:26.529Z,66.95
2023-03-31T08:08:55.222Z,66.51
2023-03-31T08:11:24.523Z,66.29
2023-03-31T08:13:59.593Z,65.86
2023-03-31T08:16:32.656Z,66.24
2023-03-31T08:19:03.348Z,66.04
2023-03-31T08:21:32.300Z,65.92
2023-03-31T08:24:11.358Z,65.48
2023-03-31T08:26:41.664Z,65.32
2023-03-31T08:29:13.709Z,65.15
2023-03-31T08:31:44.678Z,64.81
2023-03-31T08:34:17.179Z,64.29
2023-03-31T08:36:46.210Z,63.82
2023-03-31T08:39:19.605Z,63.57
2023-03-31T08:41:55.861Z,64.01
2023-03-31T08:44:31.135Z,63.54
2023-03-31T08:47:03.824Z,63.61
2023-03-31T08:49:38.939Z,63.85
2023-03-31T08:52:12.982Z,63.98
2023-03-31T08:54:45.715Z,63.56
2023-03-31T08:57:20.413Z,63.66
2023-03-31T08:59:49.663Z,63.82
2023-03-31T09:02:26.345Z,63.44
2023-03-31T09:05:23.885Z,63.56
2023-03-31T09:08:00.202Z,63.71
2023-03-31T09:10:39.991Z,63.56
2023-03-31T09:13:42.669Z,64.42
2023-03-31T09:16:16.731Z,64.68
2023-03-31T09:18:47.244Z,64.81
2023-03-31T09:21:22.587Z,64.56
2023-03-31T09:23:57.380Z,64.82
2023-03-31T09:26:32.559Z,65.06
2023-03-31T09:29:03.620Z,65.09
2023-03-31T09:31:34.122Z,65.39
2023-03-31T09:34:14.883Z,64.57
2023-03-31T09:36:43.804Z,64.07
2023-03-31T09:39:15.456Z,64.12
2023-03-31T09:41:46.777Z,63.79
2023-03-31T09:44:27.982Z,63.70
2023-03-31T09:46:57.215Z,63.59
2023-03-31T09:49:29.955Z,62.41
2023-03-31T09:52:08.403Z,60.66
2023-03-31T09:54:40.675Z,56.05
2023-03-31T09:57:26.021Z,53.65
2023-03-31T09:59:55.044Z,52.01
2023-03-31T10:02:35.356Z,51.43
2023-03-31T10:05:07.002Z,50.50
2023-03-31T10:07:36.179Z,51.20
2023-03-31T10:10:25.136Z,50.50
2023-03-31T10:12:54.385Z,51.05
2023-03-31T10:15:27.007Z,51.37
2023-03-31T10:17:55.816Z,49.90
2023-03-31T10:20:38.478Z,46.51
2023-03-31T10:23:18.136Z,47.31
2023-03-31T10:25:48.160Z,46.26
2023-03-31T10:28:19.968Z,45.60
2023-03-31T10:30:50.952Z,43.97
2023-03-31T10:33:23.783Z,42.77
2023-03-31T10:35:58.888Z,43.25
2023-03-31T10:38:32.007Z,42.36
2023-03-31T10:41:02.319Z,40.88
2023-03-31T10:43:35.858Z,41.94
2023-03-31T10:46:04.437Z,40.82
2023-03-31T10:48:34.418Z,41.47
2023-03-31T10:51:07.719Z,41.05
2023-03-31T10:53:42.770Z,40.53
2023-03-31T10:56:20.647Z,40.51
2023-03-31T10:59:05.648Z,41.26
2023-03-31T11:01:43.366Z,41.21
2023-03-31T11:04:30.704Z,40.39
2023-03-31T11:07:07.839Z,40.02
2023-03-31T11:09:48.519Z,39.32
2023-03-31T11:12:22.990Z,40.16
2023-03-31T11:15:03.110Z,39.97
2023-03-31T11:17:48.895Z,39.74
2023-03-31T11:20:30.802Z,39.21
2023-03-31T11:23:09.136Z,38.47
2023-03-31T11:25:45.132Z,38.19
2023-03-31T11:28:27.331Z,37.69
2023-03-31T11:31:08.267Z,37.84
2023-03-31T11:33:47.256Z,38.23
2023-03-31T11:36:30.263Z,38.31
2023-03-31T11:39:20.821Z,38.40
2023-03-31T11:41:51.773Z,37.62
2023-03-31T11:44:21.903Z,37.48
2023-03-31T11:46:57.443Z,37.70
2023-03-31T11:49:29.062Z,37.05
2023-03-31T11:52:01.379Z,37.56
2023-03-31T11:54:37.259Z,37.47
2023-03-31T11:57:11.904Z,37.11
2023-03-31T11:59:41.905Z,36.90
2023-03-31T12:02:19.255Z,36.79
2023-03-31T12:04:50.854Z,36.43
2023-03-31T12:07:25.573Z,36.80
2023-03-31T12:10:06.045Z,37.41
2023-03-31T12:12:40.116Z,36.76
2023-03-31T12:15:18.459Z,36.94
2023-03-31T12:17:54.052Z,36.20
2023-03-31T12:20:29.934Z,36.44
2023-03-31T12:23:00.253Z,37.45
2023-03-31T12:25:40.640Z,36.46
2023-03-31T12:28:10.220Z,36.92
2023-03-31T12:30:44.399Z,36.98
2023-03-31T12:33:20.706Z,36.81
2023-03-31T12:36:01.755Z,36.65
2023-03-31T12:38:43.011Z,37.05
2023-03-31T12:41:21.157Z,37.59
2023-03-31T12:44:07.667Z,37.18
2023-03-31T12:46:59.493Z,37.42
2023-03-31T12:49:41.372Z,36.84
2023-03-31T12:52:17.555Z,36.59
2023-03-31T12:55:25.506Z,36.41
2023-03-31T12:58:15.511Z,35.84
2023-03-31T13:01:05.427Z,34.93
2023-03-31T13:04:06.406Z,35.29
2023-03-31T13:07:02.272Z,35.79
2023-03-31T13:09:48.637Z,35.29
2023-03-31T13:12:20.230Z,35.24
2023-03-31T13:14:54.380Z,35.11
2023-03-31T13:17:27.266Z,35.14
2023-03-31T13:19:57.776Z,34.68
2023-03-31T13:22:35.700Z,34.88
2023-03-31T13:25:43.379Z,34.38
2023-03-31T13:28:33.776Z,35.10
2023-03-31T13:33:41.251Z,35.48
2023-03-31T13:36:26.647Z,34.40
2023-03-31T13:39:11.180Z,35.10
2023-03-31T13:41:54.669Z,35.03
2023-03-31T13:44:55.588Z,34.76
2023-03-31T13:48:17.421Z,34.72
2023-03-31T13:51:05.736Z,35.00
2023-03-31T13:54:05.520Z,35.76
2023-03-31T13:57:12.917Z,35.82
2023-03-31T14:00:21.603Z,35.68
2023-03-31T14:03:07.295Z,35.03
2023-03-31T14:05:38.860Z,35.95
2023-03-31T14:08:12.901Z,35.66
2023-03-31T14:10:43.456Z,35.72
2023-03-31T14:13:16.343Z,35.16
2023-03-31T14:15:50.639Z,35.77
2023-03-31T14:18:25.783Z,35.16
2023-03-31T14:21:07.170Z,35.26
2023-03-31T14:23:48.879Z,35.43
2023-03-31T14:26:30.280Z,35.95
2023-03-31T14:29:11.643Z,36.22
2023-03-31T14:31:46.270Z,36.67
2023-03-31T14:34:48.539Z,35.94
2023-03-31T14:37:21.316Z,36.39
2023-03-31T14:39:53.111Z,36.28
2023-03-31T14:42:25.512Z,36.58
2023-03-31T14:44:57.959Z,36.41
2023-03-31T14:47:29.425Z,35.79
2023-03-31T14:50:05.208Z,35.77
2023-03-31T14:52:35.963Z,36.15
2023-03-31T14:55:04.805Z,36.67
2023-03-31T14:57:37.159Z,37.07
2023-03-31T15:00:10.285Z,36.86
2023-03-31T15:02:42.574Z,37.09
2023-03-31T15:05:24.193Z,36.72
2023-03-31T15:07:52.853Z,36.85
2023-03-31T15:10:22.940Z,36.95
2023-03-31T15:12:52.305Z,36.94
2023-03-31T15:15:21.903Z,37.71
2023-03-31T15:17:50.483Z,38.33
2023-03-31T15:20:35.024Z,37.99
2023-03-31T15:23:07.931Z,38.02
2023-03-31T15:25:41.133Z,37.67
2023-03-31T15:28:15.224Z,36.90
2023-03-31T15:30:47.697Z,36.88
2023-03-31T15:33:21.685Z,36.17
2023-03-31T15:35:51.635Z,36.56
2023-03-31T15:38:20.485Z,36.31
2023-03-31T15:40:53.860Z,36.90
2023-03-31T15:43:30.686Z,36.51
2023-03-31T15:46:00.338Z,36.36
2023-03-31T15:48:33.927Z,35.95
2023-03-31T15:51:08.423Z,35.22
2023-03-31T15:53:39.221Z,35.46
2023-03-31T15:56:08.510Z,35.79
2023-03-31T15:58:58.308Z,35.83
2023-03-31T16:01:33.444Z,36.31
2023-03-31T16:04:07.180Z,36.55
2023-03-31T16:06:46.647Z,36.24
2023-03-31T16:09:18.667Z,36.82
2023-03-31T16:11:50.258Z,36.61
2023-03-31T16:14:23.958Z,36.63
2023-03-31T16:16:56.323Z,37.15
2023-03-31T16:19:28.997Z,37.40
2023-03-31T16:22:02.314Z,36.76
2023-03-31T16:24:33.938Z,37.55
2023-03-31T16:27:06.509Z,38.54
2023-03-31T16:29:37.170Z,41.32
2023-03-31T16:32:12.110Z,45.00
2023-03-31T16:34:58.602Z,45.63
2023-03-31T16:37:28.755Z,45.67
2023-03-31T16:39:57.938Z,45.32
2023-03-31T16:42:27.121Z,45.11
2023-03-31T16:45:13.146Z,44.48
2023-03-31T16:47:45.298Z,43.89
2023-03-31T16:50:15.327Z,43.72
2023-03-31T16:52:45.491Z,43.58
2023-03-31T16:55:13.995Z,43.53
2023-03-31T16:57:42.689Z,43.61
2023-03-31T17:00:12.242Z,43.55
2023-03-31T17:02:40.673Z,43.48
2023-03-31T17:05:15.254Z,43.39
2023-03-31T17:07:47.331Z,43.61
2023-03-31T17:10:16.322Z,44.01
2023-03-31T17:12:44.706Z,43.97
2023-03-31T17:15:14.056Z,43.79
2023-03-31T17:17:42.483Z,43.67
2023-03-31T17:20:12.263Z,43.60
2023-03-31T17:22:40.763Z,43.44
2023-03-31T17:25:11.468Z,43.31
2023-03-31T17:27:40.054Z,43.19
2023-03-31T17:30:10.018Z,43.37
2023-03-31T17:32:38.692Z,43.11
2023-03-31T17:35:08.147Z,43.15
2023-03-31T17:37:37.343Z,43.13
2023-03-31T17:40:06.305Z,42.89
2023-03-31T17:42:37.190Z,43.64
2023-03-31T17:45:08.929Z,46.61
2023-03-31T17:47:38.019Z,50.84
2023-03-31T17:50:08.902Z,52.77
2023-03-31T17:52:37.647Z,53.79
2023-03-31T17:55:06.686Z,54.99
2023-03-31T17:57:36.980Z,55.42
2023-03-31T18:00:09.047Z,55.67
2023-03-31T18:02:40.895Z,56.46
2023-03-31T18:05:10.948Z,57.19
2023-03-31T18:07:39.743Z,56.71
2023-03-31T18:10:10.117Z,56.78
2023-03-31T18:12:39.548Z,57.06
2023-03-31T18:15:11.102Z,56.46
2023-03-31T18:17:39.635Z,55.62
2023-03-31T18:20:10.036Z,56.21
2023-03-31T18:22:38.521Z,55.84
2023-03-31T18:25:08.576Z,55.87
2023-03-31T18:27:37.391Z,55.51
2023-03-31T18:30:06.622Z,55.28
2023-03-31T18:32:36.959Z,55.01
2023-03-31T18:35:06.280Z,54.36
2023-03-31T18:37:35.256Z,55.15
2023-03-31T18:40:03.778Z,54.67
2023-03-31T18:42:32.183Z,53.99
2023-03-31T18:45:00.648Z,53.78
2023-03-31T18:47:29.228Z,53.33
2023-03-31T18:49:59.122Z,52.99
2023-03-31T18:52:27.496Z,53.44
2023-03-31T18:54:56.113Z,52.68
2023-03-31T18:57:25.208Z,52.23
2023-03-31T18:59:54.536Z,52.22
2023-03-31T19:02:23.204Z,52.03
2023-03-31T19:04:51.678Z,51.87
2023-03-31T19:07:21.533Z,52.00
2023-03-31T19:09:49.984Z,52.28
2023-03-31T19:12:18.457Z,51.88
2023-03-31T19:14:46.910Z,52.19
2023-03-31T19:17:15.361Z,52.26
2023-03-31T19:19:43.871Z,51.90
2023-03-31T19:22:12.365Z,51.59
2023-03-31T19:24:42.387Z,51.23
2023-03-31T19:27:12.276Z,51.12
2023-03-31T19:29:41.757Z,49.97
2023-03-31T19:32:10.293Z,50.95
2023-03-31T19:34:39.852Z,51.15
2023-03-31T19:37:08.258Z,50.53
2023-03-31T19:39:37.654Z,50.36
2023-03-31T19:42:07.512Z,50.10
2023-03-31T19:44:35.914Z,49.94
2023-03-31T19:47:04.568Z,50.21
2023-03-31T19:49:33.080Z,49.38
2023-03-31T19:52:01.522Z,49.39
2023-03-31T19:54:29.975Z,49.42
2023-03-31T19:56:58.431Z,49.37
2023-03-31T19:59:28.596Z,49.33
2023-03-31T20:01:58.845Z,48.61
2023-03-31T20:04:27.345Z,48.34
2023-03-31T20:06:55.886Z,48.17
2023-03-31T20:09:26.602Z,48.30
2023-03-31T20:11:55.250Z,47.92
2023-03-31T20:14:24.358Z,47.90
2023-03-31T20:16:54.800Z,47.59
2023-03-31T20:19:23.458Z,47.34
2023-03-31T20:21:56.138Z,47.81
2023-03-31T20:24:25.013Z,48.13
2023-03-31T20:26:53.610Z,47.83
2023-03-31T20:29:22.590Z,47.25
2023-03-31T20:31:53.746Z,46.70
2023-03-31T20:34:22.889Z,46.32
2023-03-31T20:36:53.029Z,45.33
2023-03-31T20:39:21.959Z,44.76
2023-03-31T20:41:51.231Z,44.92
2023-03-31T20:44:19.739Z,44.70
2023-03-31T20:46:48.703Z,44.38
2023-03-31T20:49:18.921Z,44.29
2023-03-31T20:51:47.698Z,44.13
2023-03-31T20:54:16.221Z,44.14
2023-03-31T20:56:44.886Z,44.17
2023-03-31T20:59:16.155Z,44.52
2023-03-31T21:01:47.314Z,44.43
2023-03-31T21:04:17.138Z,44.16
2023-03-31T21:06:48.675Z,44.00
2023-03-31T21:09:17.800Z,43.55
2023-03-31T21:11:46.743Z,44.21
2023-03-31T21:14:16.521Z,44.28
2023-03-31T21:16:45.067Z,44.40
2023-03-31T21:19:13.647Z,44.14
2023-03-31T21:21:43.352Z,43.90
2023-03-31T21:24:14.696Z,43.99
2023-03-31T21:26:45.843Z,44.81
2023-03-31T21:29:14.377Z,45.05
2023-03-31T21:31:45.025Z,44.24
2023-03-31T21:34:13.581Z,44.02
2023-03-31T21:36:42.365Z,43.62
2023-03-31T21:39:11.479Z,43.88
2023-03-31T21:41:41.729Z,43.40
2023-03-31T21:44:10.241Z,44.15
2023-03-31T21:46:40.147Z,43.42
2023-03-31T21:49:08.706Z,43.11
2023-03-31T21:51:37.251Z,42.81
2023-03-31T21:54:06.982Z,43.03
2023-03-31T21:56:35.442Z,43.25
2023-03-31T21:59:05.537Z,43.29
2023-03-31T22:01:34.386Z,42.99
2023-03-31T22:04:02.877Z,43.62
2023-03-31T22:06:31.853Z,43.36
2023-03-31T22:09:00.676Z,43.78
2023-03-31T22:11:29.148Z,43.50
2023-03-31T22:13:58.173Z,43.38
2023-03-31T22:16:28.113Z,43.47
2023-03-31T22:18:56.944Z,44.04
2023-03-31T22:21:43.860Z,43.95
2023-03-31T22:24:13.673Z,43.77
2023-03-31T22:26:42.068Z,43.81
2023-03-31T22:29:15.102Z,43.90
2023-03-31T22:31:44.973Z,44.49
2023-03-31T22:34:13.405Z,44.77
2023-03-31T22:36:43.047Z,44.60
2023-03-31T22:39:11.489Z,44.31
2023-03-31T22:41:39.920Z,44.93
2023-03-31T22:44:08.576Z,45.39
2023-03-31T22:46:38.600Z,45.13
2023-03-31T22:49:08.544Z,45.50
2023-03-31T22:51:37.267Z,45.72
2023-03-31T22:54:05.649Z,45.23
2023-03-31T22:56:34.110Z,44.85
2023-03-31T22:59:02.555Z,44.21
2023-03-31T23:01:31.191Z,44.50
2023-03-31T23:04:00.711Z,44.48
2023-03-31T23:06:30.925Z,44.12
2023-03-31T23:08:59.905Z,44.50
2023-03-31T23:11:28.521Z,44.35
2023-03-31T23:13:56.888Z,44.28
2023-03-31T23:16:27.496Z,44.08
2023-03-31T23:18:56.660Z,44.11
2023-03-31T23:21:27.208Z,44.22
2023-03-31T23:23:59.680Z,44.15
2023-03-31T23:26:30.251Z,43.69
2023-03-31T23:28:59.208Z,44.21
2023-03-31T23:31:29.901Z,44.37
2023-03-31T23:33:58.898Z,44.22
2023-03-31T23:36:27.739Z,44.31
2023-03-31T23:38:58.455Z,44.36
2023-03-31T23:41:27.226Z,44.36
2023-03-31T23:43:57.894Z,43.95
2023-03-31T23:46:26.809Z,44.11
2023-03-31T23:48:56.004Z,44.05
2023-03-31T23:51:24.701Z,44.19
2023-03-31T23:53:53.167Z,44.03
2023-03-31T23:56:23.067Z,43.86
2023-03-31T23:58:51.415Z,43.41
